Airfield :







YOU CAN JOIN US ON...

 
LOGIN :

Register | Disclaimer

   EN    FR    IT 

 









Legend :    VFR   Marginal VFR   IFR   Intensive IFR   Very Intensive IFR
Visi :
Ceiling :
>= 8 km
>= 3000ft
5 to 8 km
1000 to 3000 ft
1500m to 5 km
500 to 1000 ft
800 to 1500m
200 to 500 ft
< 800m
< 200 ft
Symbols :   Thunderstorms  Fog  Heavy snow  Heavy precipitations  Wind > 20 kt







- Airport Elevation : 271 ft


KBAF - Barnes Municipal

CURRENT METAR :
  • 171253Z 19004KT 10SM BKN110 25/20 A2995 RMK AO2 SLP139 T02500200

EXPIRED METARs :
  • 171153Z 18005KT 10SM FEW095 25/20 A2995 RMK AO2 SLP137 T02500200 10250 20217 50001
  • 171053Z 00000KT 10SM OVC100 24/19 A2995 RMK AO2 SLP138 T02390194

TAF KBAF
Valid from the 17 at 12:00 until the 18 at 12:00 UTC


171126Z 1712/1812 VRB03KT P6SM BKN100
FM171400 23005KT 5SM BR VCSH BKN100
FM171800 24010KT 2SM +SHRA VCTS OVC060CB
FM172300 28004KT 5SM -SHRA OVC050
FM180200 31003KT 6SM -SHRA OVC035
FM180800 06003KT 6SM -SHRA OVC010
KZBW FIR / North America



MET'MAP, your aeronautical weather chart ! - Copyright ORBIFLY December 2007 - Disclaimer

ORBIFLY MET'MAP TEAM :

Programming & Development : Alexandra Zaïnal
Concept & Development : Baudouin d'Aumeries
Co-Development & Prog : Marc-Olivier Méhu
Technical & hardware support : Manuel Goepfert

Contact : metmap@orbifly.com




SOURCES & CREDITS :

   NOAA